sensor_id;sensor_type;location;lat;lon;timestamp;temperature;humidity
7648;DHT22;3866;48.020;11.720;2022-12-24T00:01:55;10.90;99.90
7648;DHT22;3866;48.020;11.720;2022-12-24T00:04:22;11.00;99.90
7648;DHT22;3866;48.020;11.720;2022-12-24T00:06:49;11.10;99.90
7648;DHT22;3866;48.020;11.720;2022-12-24T00:09:17;11.10;99.90
7648;DHT22;3866;48.020;11.720;2022-12-24T00:11:44;11.00;99.90
7648;DHT22;3866;48.020;11.720;2022-12-24T00:14:11;11.00;99.90
7648;DHT22;3866;48.020;11.720;2022-12-24T00:16:38;11.10;99.90
7648;DHT22;3866;48.020;11.720;2022-12-24T00:19:05;11.00;99.90
7648;DHT22;3866;48.020;11.720;2022-12-24T00:21:32;11.10;99.90
7648;DHT22;3866;48.020;11.720;2022-12-24T00:23:59;11.00;99.90
7648;DHT22;3866;48.020;11.720;2022-12-24T00:26:29;11.10;99.90
7648;DHT22;3866;48.020;11.720;2022-12-24T00:28:56;11.10;99.90
7648;DHT22;3866;48.020;11.720;2022-12-24T00:31:24;11.10;99.90
7648;DHT22;3866;48.020;11.720;2022-12-24T00:33:51;11.10;99.90
7648;DHT22;3866;48.020;11.720;2022-12-24T00:36:18;11.10;99.90
7648;DHT22;3866;48.020;11.720;2022-12-24T00:38:46;11.00;99.90
7648;DHT22;3866;48.020;11.720;2022-12-24T00:41:14;11.00;99.90
7648;DHT22;3866;48.020;11.720;2022-12-24T00:43:52;11.00;99.90
7648;DHT22;3866;48.020;11.720;2022-12-24T00:46:19;11.00;99.90
7648;DHT22;3866;48.020;11.720;2022-12-24T00:48:46;11.10;99.90
7648;DHT22;3866;48.020;11.720;2022-12-24T00:51:13;11.00;99.90
7648;DHT22;3866;48.020;11.720;2022-12-24T00:53:40;10.90;99.90
7648;DHT22;3866;48.020;11.720;2022-12-24T00:56:07;10.90;99.90
7648;DHT22;3866;48.020;11.720;2022-12-24T00:58:34;10.90;99.90
7648;DHT22;3866;48.020;11.720;2022-12-24T01:01:03;10.90;99.90
7648;DHT22;3866;48.020;11.720;2022-12-24T01:03:31;10.90;99.90
7648;DHT22;3866;48.020;11.720;2022-12-24T01:06:02;10.90;99.90
7648;DHT22;3866;48.020;11.720;2022-12-24T01:08:28;10.90;99.90
7648;DHT22;3866;48.020;11.720;2022-12-24T01:10:56;10.90;99.90
7648;DHT22;3866;48.020;11.720;2022-12-24T01:13:24;10.90;99.90
7648;DHT22;3866;48.020;11.720;2022-12-24T01:15:52;10.80;99.90
7648;DHT22;3866;48.020;11.720;2022-12-24T01:18:22;10.80;99.90
7648;DHT22;3866;48.020;11.720;2022-12-24T01:20:55;10.80;99.90
7648;DHT22;3866;48.020;11.720;2022-12-24T01:23:23;10.80;99.90
7648;DHT22;3866;48.020;11.720;2022-12-24T01:25:52;10.70;99.90
7648;DHT22;3866;48.020;11.720;2022-12-24T01:28:20;10.70;99.90
7648;DHT22;3866;48.020;11.720;2022-12-24T01:30:48;10.70;99.90
7648;DHT22;3866;48.020;11.720;2022-12-24T01:33:16;10.60;99.90
7648;DHT22;3866;48.020;11.720;2022-12-24T01:35:45;10.60;99.90
7648;DHT22;3866;48.020;11.720;2022-12-24T01:38:14;10.60;99.90
7648;DHT22;3866;48.020;11.720;2022-12-24T01:40:42;10.60;99.90
7648;DHT22;3866;48.020;11.720;2022-12-24T01:43:35;10.60;99.90
7648;DHT22;3866;48.020;11.720;2022-12-24T01:46:03;10.60;99.90
7648;DHT22;3866;48.020;11.720;2022-12-24T01:48:38;10.70;99.90
7648;DHT22;3866;48.020;11.720;2022-12-24T01:51:13;10.60;99.90
7648;DHT22;3866;48.020;11.720;2022-12-24T01:53:45;10.70;99.90
7648;DHT22;3866;48.020;11.720;2022-12-24T01:56:15;10.60;99.90
7648;DHT22;3866;48.020;11.720;2022-12-24T01:58:46;10.70;99.90
7648;DHT22;3866;48.020;11.720;2022-12-24T02:01:15;10.70;99.90
7648;DHT22;3866;48.020;11.720;2022-12-24T02:03:44;10.80;99.90
7648;DHT22;3866;48.020;11.720;2022-12-24T02:06:14;10.70;99.90
7648;DHT22;3866;48.020;11.720;2022-12-24T02:08:44;10.80;99.90
7648;DHT22;3866;48.020;11.720;2022-12-24T02:11:14;10.70;99.90
7648;DHT22;3866;48.020;11.720;2022-12-24T02:13:45;10.70;99.90
7648;DHT22;3866;48.020;11.720;2022-12-24T02:16:22;10.70;99.90
7648;DHT22;3866;48.020;11.720;2022-12-24T02:18:57;10.70;99.90
7648;DHT22;3866;48.020;11.720;2022-12-24T02:21:55;10.70;99.90
7648;DHT22;3866;48.020;11.720;2022-12-24T02:24:51;10.70;99.90
7648;DHT22;3866;48.020;11.720;2022-12-24T02:27:36;10.60;99.90
7648;DHT22;3866;48.020;11.720;2022-12-24T02:30:13;10.60;99.90
7648;DHT22;3866;48.020;11.720;2022-12-24T02:32:56;10.70;99.90
7648;DHT22;3866;48.020;11.720;2022-12-24T02:35:33;10.80;99.90
7648;DHT22;3866;48.020;11.720;2022-12-24T02:38:08;10.80;99.90
7648;DHT22;3866;48.020;11.720;2022-12-24T02:40:43;10.70;99.90
7648;DHT22;3866;48.020;11.720;2022-12-24T02:43:17;10.80;99.90
7648;DHT22;3866;48.020;11.720;2022-12-24T02:46:02;10.70;99.90
7648;DHT22;3866;48.020;11.720;2022-12-24T02:48:34;10.70;99.90
7648;DHT22;3866;48.020;11.720;2022-12-24T02:51:05;10.70;99.90
7648;DHT22;3866;48.020;11.720;2022-12-24T02:53:34;10.70;99.90
7648;DHT22;3866;48.020;11.720;2022-12-24T02:56:35;10.70;99.90
7648;DHT22;3866;48.020;11.720;2022-12-24T03:02:25;10.70;99.90
7648;DHT22;3866;48.020;11.720;2022-12-24T03:05:01;10.60;99.90
7648;DHT22;3866;48.020;11.720;2022-12-24T03:07:36;10.60;99.90
7648;DHT22;3866;48.020;11.720;2022-12-24T03:10:14;10.60;99.90
7648;DHT22;3866;48.020;11.720;2022-12-24T03:12:48;10.60;99.90
7648;DHT22;3866;48.020;11.720;2022-12-24T03:15:21;10.60;99.90
7648;DHT22;3866;48.020;11.720;2022-12-24T03:17:57;10.60;99.90
7648;DHT22;3866;48.020;11.720;2022-12-24T03:20:31;10.60;99.90
7648;DHT22;3866;48.020;11.720;2022-12-24T03:23:00;10.60;99.90
7648;DHT22;3866;48.020;11.720;2022-12-24T03:25:29;10.60;99.90
7648;DHT22;3866;48.020;11.720;2022-12-24T03:28:02;10.60;99.90
7648;DHT22;3866;48.020;11.720;2022-12-24T03:30:32;10.60;99.90
7648;DHT22;3866;48.020;11.720;2022-12-24T03:33:02;10.50;99.90
7648;DHT22;3866;48.020;11.720;2022-12-24T03:35:32;10.50;99.90
7648;DHT22;3866;48.020;11.720;2022-12-24T03:38:00;10.50;99.90
7648;DHT22;3866;48.020;11.720;2022-12-24T03:40:31;10.50;99.90
7648;DHT22;3866;48.020;11.720;2022-12-24T03:42:59;10.50;99.90
7648;DHT22;3866;48.020;11.720;2022-12-24T03:45:27;10.50;99.90
7648;DHT22;3866;48.020;11.720;2022-12-24T03:47:55;10.50;99.90
7648;DHT22;3866;48.020;11.720;2022-12-24T03:50:23;10.50;99.90
7648;DHT22;3866;48.020;11.720;2022-12-24T03:52:53;10.50;99.90
7648;DHT22;3866;48.020;11.720;2022-12-24T03:55:22;10.50;99.90
7648;DHT22;3866;48.020;11.720;2022-12-24T03:57:50;10.40;99.90
7648;DHT22;3866;48.020;11.720;2022-12-24T04:00:19;10.40;99.90
7648;DHT22;3866;48.020;11.720;2022-12-24T04:02:49;10.40;99.90
7648;DHT22;3866;48.020;11.720;2022-12-24T04:05:19;10.40;99.90
7648;DHT22;3866;48.020;11.720;2022-12-24T04:07:48;10.40;99.90
7648;DHT22;3866;48.020;11.720;2022-12-24T04:10:16;10.40;99.90
7648;DHT22;3866;48.020;11.720;2022-12-24T04:12:43;10.40;99.90
7648;DHT22;3866;48.020;11.720;2022-12-24T04:15:11;10.40;99.90
7648;DHT22;3866;48.020;11.720;2022-12-24T04:17:39;10.40;99.90
7648;DHT22;3866;48.020;11.720;2022-12-24T04:20:08;10.30;99.90
7648;DHT22;3866;48.020;11.720;2022-12-24T04:22:37;10.40;99.90
7648;DHT22;3866;48.020;11.720;2022-12-24T04:25:07;10.40;99.90
7648;DHT22;3866;48.020;11.720;2022-12-24T04:27:34;10.30;99.90
7648;DHT22;3866;48.020;11.720;2022-12-24T04:30:03;10.40;99.90
7648;DHT22;3866;48.020;11.720;2022-12-24T04:32:31;10.30;99.90
7648;DHT22;3866;48.020;11.720;2022-12-24T04:35:00;10.30;99.90
7648;DHT22;3866;48.020;11.720;2022-12-24T04:37:26;10.30;99.90
7648;DHT22;3866;48.020;11.720;2022-12-24T04:39:55;10.30;99.90
7648;DHT22;3866;48.020;11.720;2022-12-24T04:42:24;10.30;99.90
7648;DHT22;3866;48.020;11.720;2022-12-24T04:44:52;10.30;99.90
7648;DHT22;3866;48.020;11.720;2022-12-24T04:47:20;10.20;99.90
7648;DHT22;3866;48.020;11.720;2022-12-24T04:49:48;10.20;99.90
7648;DHT22;3866;48.020;11.720;2022-12-24T04:52:16;10.20;99.90
7648;DHT22;3866;48.020;11.720;2022-12-24T04:54:44;10.20;99.90
7648;DHT22;3866;48.020;11.720;2022-12-24T04:57:12;10.10;99.90
7648;DHT22;3866;48.020;11.720;2022-12-24T04:59:41;10.10;99.90
7648;DHT22;3866;48.020;11.720;2022-12-24T05:02:09;10.20;99.90
7648;DHT22;3866;48.020;11.720;2022-12-24T05:04:38;10.20;99.90
7648;DHT22;3866;48.020;11.720;2022-12-24T05:07:05;10.20;99.90
7648;DHT22;3866;48.020;11.720;2022-12-24T05:09:34;10.10;99.90
7648;DHT22;3866;48.020;11.720;2022-12-24T05:12:02;10.10;99.90
7648;DHT22;3866;48.020;11.720;2022-12-24T05:14:31;10.20;99.90
7648;DHT22;3866;48.020;11.720;2022-12-24T05:17:00;10.20;99.90
7648;DHT22;3866;48.020;11.720;2022-12-24T05:19:28;10.20;99.90
7648;DHT22;3866;48.020;11.720;2022-12-24T05:21:57;10.20;99.90
7648;DHT22;3866;48.020;11.720;2022-12-24T05:24:42;10.20;99.90
7648;DHT22;3866;48.020;11.720;2022-12-24T05:27:27;10.10;99.90
7648;DHT22;3866;48.020;11.720;2022-12-24T05:29:55;10.20;99.90
7648;DHT22;3866;48.020;11.720;2022-12-24T05:32:24;10.20;99.90
7648;DHT22;3866;48.020;11.720;2022-12-24T05:34:52;10.20;99.90
7648;DHT22;3866;48.020;11.720;2022-12-24T05:37:22;10.20;99.90
7648;DHT22;3866;48.020;11.720;2022-12-24T05:39:50;10.20;99.90
7648;DHT22;3866;48.020;11.720;2022-12-24T05:42:19;10.10;99.90
7648;DHT22;3866;48.020;11.720;2022-12-24T05:44:47;10.10;99.90
7648;DHT22;3866;48.020;11.720;2022-12-24T05:47:15;10.10;99.90
7648;DHT22;3866;48.020;11.720;2022-12-24T05:49:48;10.10;99.90
7648;DHT22;3866;48.020;11.720;2022-12-24T05:52:16;10.10;99.90
7648;DHT22;3866;48.020;11.720;2022-12-24T05:54:44;10.20;99.90
7648;DHT22;3866;48.020;11.720;2022-12-24T05:57:12;10.20;99.90
7648;DHT22;3866;48.020;11.720;2022-12-24T05:59:41;10.10;99.90
7648;DHT22;3866;48.020;11.720;2022-12-24T06:02:09;10.20;99.90
7648;DHT22;3866;48.020;11.720;2022-12-24T06:04:37;10.10;99.90
7648;DHT22;3866;48.020;11.720;2022-12-24T06:07:07;10.10;99.90
7648;DHT22;3866;48.020;11.720;2022-12-24T06:09:35;10.10;99.90
7648;DHT22;3866;48.020;11.720;2022-12-24T06:12:03;10.10;99.90
7648;DHT22;3866;48.020;11.720;2022-12-24T06:14:31;10.10;99.90
7648;DHT22;3866;48.020;11.720;2022-12-24T06:16:59;10.10;99.90
7648;DHT22;3866;48.020;11.720;2022-12-24T06:19:28;10.10;99.90
7648;DHT22;3866;48.020;11.720;2022-12-24T06:21:55;10.00;99.90
7648;DHT22;3866;48.020;11.720;2022-12-24T06:24:24;10.00;99.90
7648;DHT22;3866;48.020;11.720;2022-12-24T06:26:52;10.00;99.90
7648;DHT22;3866;48.020;11.720;2022-12-24T06:29:25;9.90;99.90
7648;DHT22;3866;48.020;11.720;2022-12-24T06:31:51;9.80;99.90
7648;DHT22;3866;48.020;11.720;2022-12-24T06:34:20;9.80;99.90
7648;DHT22;3866;48.020;11.720;2022-12-24T06:36:48;9.80;99.90
7648;DHT22;3866;48.020;11.720;2022-12-24T06:39:15;9.70;99.90
7648;DHT22;3866;48.020;11.720;2022-12-24T06:41:45;9.70;99.90
7648;DHT22;3866;48.020;11.720;2022-12-24T06:44:12;9.70;99.90
7648;DHT22;3866;48.020;11.720;2022-12-24T06:46:40;9.70;99.90
7648;DHT22;3866;48.020;11.720;2022-12-24T06:49:08;9.70;99.90
7648;DHT22;3866;48.020;11.720;2022-12-24T06:51:36;9.60;99.90
7648;DHT22;3866;48.020;11.720;2022-12-24T06:54:04;9.60;99.90
7648;DHT22;3866;48.020;11.720;2022-12-24T06:56:31;9.60;99.90
7648;DHT22;3866;48.020;11.720;2022-12-24T06:59:01;9.50;99.90
7648;DHT22;3866;48.020;11.720;2022-12-24T07:01:29;9.50;99.90
7648;DHT22;3866;48.020;11.720;2022-12-24T07:03:57;9.50;99.90
7648;DHT22;3866;48.020;11.720;2022-12-24T07:06:28;9.50;99.90
7648;DHT22;3866;48.020;11.720;2022-12-24T07:08:56;9.50;99.90
7648;DHT22;3866;48.020;11.720;2022-12-24T07:11:24;9.50;99.90
7648;DHT22;3866;48.020;11.720;2022-12-24T07:13:51;9.50;99.90
7648;DHT22;3866;48.020;11.720;2022-12-24T07:16:20;9.50;99.90
7648;DHT22;3866;48.020;11.720;2022-12-24T07:18:47;9.50;99.90
7648;DHT22;3866;48.020;11.720;2022-12-24T07:21:15;9.50;99.90
7648;DHT22;3866;48.020;11.720;2022-12-24T07:23:42;9.50;99.90
7648;DHT22;3866;48.020;11.720;2022-12-24T07:26:10;9.50;99.90
7648;DHT22;3866;48.020;11.720;2022-12-24T07:28:42;9.50;99.90
7648;DHT22;3866;48.020;11.720;2022-12-24T07:31:26;9.50;99.90
7648;DHT22;3866;48.020;11.720;2022-12-24T07:33:54;9.50;99.90
7648;DHT22;3866;48.020;11.720;2022-12-24T07:36:23;9.50;99.90
7648;DHT22;3866;48.020;11.720;2022-12-24T07:38:53;9.50;99.90
7648;DHT22;3866;48.020;11.720;2022-12-24T07:41:22;9.40;99.90
7648;DHT22;3866;48.020;11.720;2022-12-24T07:43:53;9.40;99.90
7648;DHT22;3866;48.020;11.720;2022-12-24T07:46:21;9.40;99.90
7648;DHT22;3866;48.020;11.720;2022-12-24T07:48:51;9.50;99.90
7648;DHT22;3866;48.020;11.720;2022-12-24T07:51:18;9.60;99.90
7648;DHT22;3866;48.020;11.720;2022-12-24T07:53:46;9.50;99.90
7648;DHT22;3866;48.020;11.720;2022-12-24T07:56:14;9.50;99.90
7648;DHT22;3866;48.020;11.720;2022-12-24T07:58:42;9.50;99.90
7648;DHT22;3866;48.020;11.720;2022-12-24T08:01:11;9.50;99.90
7648;DHT22;3866;48.020;11.720;2022-12-24T08:03:38;9.50;99.90
7648;DHT22;3866;48.020;11.720;2022-12-24T08:06:08;9.50;99.90
7648;DHT22;3866;48.020;11.720;2022-12-24T08:08:36;9.50;99.90
7648;DHT22;3866;48.020;11.720;2022-12-24T08:11:06;9.40;99.90
7648;DHT22;3866;48.020;11.720;2022-12-24T08:13:34;9.40;99.90
7648;DHT22;3866;48.020;11.720;2022-12-24T08:16:02;9.40;99.90
7648;DHT22;3866;48.020;11.720;2022-12-24T08:18:30;9.40;99.90
7648;DHT22;3866;48.020;11.720;2022-12-24T08:20:58;9.30;99.90
7648;DHT22;3866;48.020;11.720;2022-12-24T08:23:29;9.30;99.90
7648;DHT22;3866;48.020;11.720;2022-12-24T08:25:56;9.30;99.90
7648;DHT22;3866;48.020;11.720;2022-12-24T08:28:24;9.30;99.90
7648;DHT22;3866;48.020;11.720;2022-12-24T08:30:52;9.30;99.90
7648;DHT22;3866;48.020;11.720;2022-12-24T08:33:21;9.30;99.90
7648;DHT22;3866;48.020;11.720;2022-12-24T08:35:49;9.30;99.90
7648;DHT22;3866;48.020;11.720;2022-12-24T08:38:16;9.20;99.90
7648;DHT22;3866;48.020;11.720;2022-12-24T08:40:45;9.20;99.90
7648;DHT22;3866;48.020;11.720;2022-12-24T08:43:14;9.20;99.90
7648;DHT22;3866;48.020;11.720;2022-12-24T08:45:41;9.30;99.90
7648;DHT22;3866;48.020;11.720;2022-12-24T08:48:09;9.30;99.90
7648;DHT22;3866;48.020;11.720;2022-12-24T08:50:38;9.20;99.90
7648;DHT22;3866;48.020;11.720;2022-12-24T08:53:06;9.20;99.90
7648;DHT22;3866;48.020;11.720;2022-12-24T08:55:33;9.20;99.90
7648;DHT22;3866;48.020;11.720;2022-12-24T08:58:01;9.20;99.90
7648;DHT22;3866;48.020;11.720;2022-12-24T09:00:28;9.20;99.90
7648;DHT22;3866;48.020;11.720;2022-12-24T09:02:55;9.20;99.90
7648;DHT22;3866;48.020;11.720;2022-12-24T09:05:22;9.20;99.90
7648;DHT22;3866;48.020;11.720;2022-12-24T09:07:50;9.30;99.90
7648;DHT22;3866;48.020;11.720;2022-12-24T09:10:17;9.20;99.90
7648;DHT22;3866;48.020;11.720;2022-12-24T09:12:44;9.30;99.90
7648;DHT22;3866;48.020;11.720;2022-12-24T09:15:12;9.30;99.90
7648;DHT22;3866;48.020;11.720;2022-12-24T09:17:39;9.40;99.90
7648;DHT22;3866;48.020;11.720;2022-12-24T09:20:07;9.40;99.90
7648;DHT22;3866;48.020;11.720;2022-12-24T09:22:36;9.40;99.90
7648;DHT22;3866;48.020;11.720;2022-12-24T09:25:04;9.40;99.90
7648;DHT22;3866;48.020;11.720;2022-12-24T09:27:32;9.40;99.90
7648;DHT22;3866;48.020;11.720;2022-12-24T09:29:59;9.50;99.90
7648;DHT22;3866;48.020;11.720;2022-12-24T09:32:27;9.60;99.90
7648;DHT22;3866;48.020;11.720;2022-12-24T09:34:54;9.70;99.90
7648;DHT22;3866;48.020;11.720;2022-12-24T09:37:21;9.70;99.90
7648;DHT22;3866;48.020;11.720;2022-12-24T09:39:48;9.70;99.90
7648;DHT22;3866;48.020;11.720;2022-12-24T09:42:25;9.70;99.90
7648;DHT22;3866;48.020;11.720;2022-12-24T09:45:01;9.70;99.90
7648;DHT22;3866;48.020;11.720;2022-12-24T09:47:33;9.70;99.90
7648;DHT22;3866;48.020;11.720;2022-12-24T09:50:08;9.70;99.90
7648;DHT22;3866;48.020;11.720;2022-12-24T09:52:47;9.60;99.90
7648;DHT22;3866;48.020;11.720;2022-12-24T09:55:20;9.60;99.90
7648;DHT22;3866;48.020;11.720;2022-12-24T09:57:50;9.60;99.90
7648;DHT22;3866;48.020;11.720;2022-12-24T10:00:22;9.60;99.90
7648;DHT22;3866;48.020;11.720;2022-12-24T10:02:50;9.60;99.90
7648;DHT22;3866;48.020;11.720;2022-12-24T10:05:23;9.60;99.90
7648;DHT22;3866;48.020;11.720;2022-12-24T10:07:57;9.60;99.90
7648;DHT22;3866;48.020;11.720;2022-12-24T10:10:33;9.60;99.90
7648;DHT22;3866;48.020;11.720;2022-12-24T10:13:08;9.60;99.90
7648;DHT22;3866;48.020;11.720;2022-12-24T10:15:45;9.60;99.90
7648;DHT22;3866;48.020;11.720;2022-12-24T10:18:24;9.60;99.90
7648;DHT22;3866;48.020;11.720;2022-12-24T10:20:57;9.60;99.90
7648;DHT22;3866;48.020;11.720;2022-12-24T10:23:31;9.60;99.90
7648;DHT22;3866;48.020;11.720;2022-12-24T10:26:06;9.70;99.90
7648;DHT22;3866;48.020;11.720;2022-12-24T10:28:40;9.70;99.90
7648;DHT22;3866;48.020;11.720;2022-12-24T10:31:08;9.70;99.90
7648;DHT22;3866;48.020;11.720;2022-12-24T10:33:39;9.70;99.90
7648;DHT22;3866;48.020;11.720;2022-12-24T10:36:10;9.60;99.90
7648;DHT22;3866;48.020;11.720;2022-12-24T10:38:38;9.70;99.90
7648;DHT22;3866;48.020;11.720;2022-12-24T10:41:06;9.70;99.90
7648;DHT22;3866;48.020;11.720;2022-12-24T10:43:34;9.60;99.90
7648;DHT22;3866;48.020;11.720;2022-12-24T10:46:05;9.70;99.90
7648;DHT22;3866;48.020;11.720;2022-12-24T10:48:39;9.70;99.90
7648;DHT22;3866;48.020;11.720;2022-12-24T10:51:13;9.70;99.90
7648;DHT22;3866;48.020;11.720;2022-12-24T10:53:47;9.80;99.90
7648;DHT22;3866;48.020;11.720;2022-12-24T10:56:16;9.90;99.90
7648;DHT22;3866;48.020;11.720;2022-12-24T10:58:45;9.90;99.90
7648;DHT22;3866;48.020;11.720;2022-12-24T11:01:13;10.00;99.90
7648;DHT22;3866;48.020;11.720;2022-12-24T11:03:41;10.10;99.90
7648;DHT22;3866;48.020;11.720;2022-12-24T11:06:10;10.10;99.90
7648;DHT22;3866;48.020;11.720;2022-12-24T11:08:38;10.10;99.90
7648;DHT22;3866;48.020;11.720;2022-12-24T11:11:08;10.00;99.90
7648;DHT22;3866;48.020;11.720;2022-12-24T11:13:37;10.00;99.90
7648;DHT22;3866;48.020;11.720;2022-12-24T11:16:09;10.00;99.90
7648;DHT22;3866;48.020;11.720;2022-12-24T11:18:43;10.00;99.90
7648;DHT22;3866;48.020;11.720;2022-12-24T11:21:18;9.90;99.90
7648;DHT22;3866;48.020;11.720;2022-12-24T11:23:49;9.90;99.90
7648;DHT22;3866;48.020;11.720;2022-12-24T11:26:21;9.80;99.90
7648;DHT22;3866;48.020;11.720;2022-12-24T11:29:08;9.80;99.90
7648;DHT22;3866;48.020;11.720;2022-12-24T11:31:38;9.90;99.90
7648;DHT22;3866;48.020;11.720;2022-12-24T11:37:09;10.40;99.90
7648;DHT22;3866;48.020;11.720;2022-12-24T11:39:42;11.10;99.90
7648;DHT22;3866;48.020;11.720;2022-12-24T11:42:23;11.40;99.90
7648;DHT22;3866;48.020;11.720;2022-12-24T11:44:51;11.90;99.90
7648;DHT22;3866;48.020;11.720;2022-12-24T11:47:31;11.60;99.90
7648;DHT22;3866;48.020;11.720;2022-12-24T11:50:21;11.20;99.90
7648;DHT22;3866;48.020;11.720;2022-12-24T11:52:54;10.90;99.90
7648;DHT22;3866;48.020;11.720;2022-12-24T11:55:32;10.70;99.90
7648;DHT22;3866;48.020;11.720;2022-12-24T11:58:10;10.60;99.90
7648;DHT22;3866;48.020;11.720;2022-12-24T12:00:40;10.50;99.90
7648;DHT22;3866;48.020;11.720;2022-12-24T12:03:19;10.50;99.90
7648;DHT22;3866;48.020;11.720;2022-12-24T12:05:48;10.50;99.90
7648;DHT22;3866;48.020;11.720;2022-12-24T12:08:19;10.50;99.90
7648;DHT22;3866;48.020;11.720;2022-12-24T12:10:48;10.60;99.90
7648;DHT22;3866;48.020;11.720;2022-12-24T12:13:21;10.50;99.90
7648;DHT22;3866;48.020;11.720;2022-12-24T12:16:05;10.50;99.90
7648;DHT22;3866;48.020;11.720;2022-12-24T12:18:36;10.50;99.90
7648;DHT22;3866;48.020;11.720;2022-12-24T12:21:07;10.50;99.90
7648;DHT22;3866;48.020;11.720;2022-12-24T12:23:43;10.60;99.90
7648;DHT22;3866;48.020;11.720;2022-12-24T12:26:16;10.50;99.90
7648;DHT22;3866;48.020;11.720;2022-12-24T12:28:47;10.50;99.90
7648;DHT22;3866;48.020;11.720;2022-12-24T12:31:21;10.60;99.90
7648;DHT22;3866;48.020;11.720;2022-12-24T12:33:54;10.60;99.90
7648;DHT22;3866;48.020;11.720;2022-12-24T12:36:27;10.60;99.90
7648;DHT22;3866;48.020;11.720;2022-12-24T12:39:03;10.60;99.90
7648;DHT22;3866;48.020;11.720;2022-12-24T12:41:45;10.60;99.90
7648;DHT22;3866;48.020;11.720;2022-12-24T12:44:41;10.60;99.90
7648;DHT22;3866;48.020;11.720;2022-12-24T12:47:31;10.70;99.90
7648;DHT22;3866;48.020;11.720;2022-12-24T12:50:08;10.90;99.90
7648;DHT22;3866;48.020;11.720;2022-12-24T12:52:53;11.10;99.90
7648;DHT22;3866;48.020;11.720;2022-12-24T12:55:32;11.10;99.90
7648;DHT22;3866;48.020;11.720;2022-12-24T12:58:08;11.10;99.90
7648;DHT22;3866;48.020;11.720;2022-12-24T13:00:38;11.00;99.90
7648;DHT22;3866;48.020;11.720;2022-12-24T13:03:32;11.10;99.90
7648;DHT22;3866;48.020;11.720;2022-12-24T13:06:19;11.00;99.90
7648;DHT22;3866;48.020;11.720;2022-12-24T13:09:06;11.00;99.90
7648;DHT22;3866;48.020;11.720;2022-12-24T13:11:53;11.40;99.90
7648;DHT22;3866;48.020;11.720;2022-12-24T13:14:34;11.40;99.90
7648;DHT22;3866;48.020;11.720;2022-12-24T13:17:19;11.40;99.90
7648;DHT22;3866;48.020;11.720;2022-12-24T13:20:11;11.30;99.90
7648;DHT22;3866;48.020;11.720;2022-12-24T13:22:53;11.20;99.90
7648;DHT22;3866;48.020;11.720;2022-12-24T13:25:23;11.20;99.90
7648;DHT22;3866;48.020;11.720;2022-12-24T13:27:53;11.10;99.90
7648;DHT22;3866;48.020;11.720;2022-12-24T13:30:36;10.90;99.90
7648;DHT22;3866;48.020;11.720;2022-12-24T13:33:03;10.80;99.90
7648;DHT22;3866;48.020;11.720;2022-12-24T13:35:55;10.70;99.90
7648;DHT22;3866;48.020;11.720;2022-12-24T13:38:38;10.60;99.90
7648;DHT22;3866;48.020;11.720;2022-12-24T13:44:28;10.50;99.90
7648;DHT22;3866;48.020;11.720;2022-12-24T13:47:21;10.40;99.90
7648;DHT22;3866;48.020;11.720;2022-12-24T13:49:51;10.30;99.90
7648;DHT22;3866;48.020;11.720;2022-12-24T13:52:24;10.20;99.90
7648;DHT22;3866;48.020;11.720;2022-12-24T13:55:11;10.20;99.90
7648;DHT22;3866;48.020;11.720;2022-12-24T13:57:42;10.10;99.90
7648;DHT22;3866;48.020;11.720;2022-12-24T14:03:19;10.00;99.90
7648;DHT22;3866;48.020;11.720;2022-12-24T14:05:49;9.90;99.90
7648;DHT22;3866;48.020;11.720;2022-12-24T14:08:27;9.90;99.90
7648;DHT22;3866;48.020;11.720;2022-12-24T14:11:02;9.90;99.90
7648;DHT22;3866;48.020;11.720;2022-12-24T14:13:53;9.90;99.90
7648;DHT22;3866;48.020;11.720;2022-12-24T14:16:21;9.80;99.90
7648;DHT22;3866;48.020;11.720;2022-12-24T14:18:58;9.70;99.90
7648;DHT22;3866;48.020;11.720;2022-12-24T14:21:29;9.70;99.90
7648;DHT22;3866;48.020;11.720;2022-12-24T14:23:59;9.60;99.90
7648;DHT22;3866;48.020;11.720;2022-12-24T14:26:31;9.50;99.90
7648;DHT22;3866;48.020;11.720;2022-12-24T14:29:01;9.50;99.90
7648;DHT22;3866;48.020;11.720;2022-12-24T14:31:28;9.40;99.90
7648;DHT22;3866;48.020;11.720;2022-12-24T14:34:07;9.40;99.90
7648;DHT22;3866;48.020;11.720;2022-12-24T14:36:34;9.30;99.90
7648;DHT22;3866;48.020;11.720;2022-12-24T14:39:02;9.30;99.90
7648;DHT22;3866;48.020;11.720;2022-12-24T14:41:41;9.20;99.90
7648;DHT22;3866;48.020;11.720;2022-12-24T14:44:19;9.20;99.90
7648;DHT22;3866;48.020;11.720;2022-12-24T14:46:53;9.20;99.90
7648;DHT22;3866;48.020;11.720;2022-12-24T14:49:38;9.10;99.90
7648;DHT22;3866;48.020;11.720;2022-12-24T14:52:15;9.10;99.90
7648;DHT22;3866;48.020;11.720;2022-12-24T14:54:44;9.00;99.90
7648;DHT22;3866;48.020;11.720;2022-12-24T14:57:18;9.00;99.90
7648;DHT22;3866;48.020;11.720;2022-12-24T14:59:48;8.90;99.90
7648;DHT22;3866;48.020;11.720;2022-12-24T15:02:39;8.90;99.90
7648;DHT22;3866;48.020;11.720;2022-12-24T15:05:13;8.80;99.90
7648;DHT22;3866;48.020;11.720;2022-12-24T15:07:44;8.80;99.90
7648;DHT22;3866;48.020;11.720;2022-12-24T15:10:26;8.70;99.90
7648;DHT22;3866;48.020;11.720;2022-12-24T15:12:55;8.70;99.90
7648;DHT22;3866;48.020;11.720;2022-12-24T15:15:23;8.60;99.90
7648;DHT22;3866;48.020;11.720;2022-12-24T15:17:50;8.60;99.90
7648;DHT22;3866;48.020;11.720;2022-12-24T15:20:24;8.60;99.90
7648;DHT22;3866;48.020;11.720;2022-12-24T15:22:56;8.50;99.90
7648;DHT22;3866;48.020;11.720;2022-12-24T15:25:26;8.60;99.90
7648;DHT22;3866;48.020;11.720;2022-12-24T15:27:53;8.50;99.90
7648;DHT22;3866;48.020;11.720;2022-12-24T15:30:21;8.40;99.90
7648;DHT22;3866;48.020;11.720;2022-12-24T15:32:49;8.40;99.90
7648;DHT22;3866;48.020;11.720;2022-12-24T15:35:44;8.30;99.90
7648;DHT22;3866;48.020;11.720;2022-12-24T15:38:23;8.30;99.90
7648;DHT22;3866;48.020;11.720;2022-12-24T15:40:52;8.30;99.90
7648;DHT22;3866;48.020;11.720;2022-12-24T15:43:20;8.20;99.90
7648;DHT22;3866;48.020;11.720;2022-12-24T15:45:47;8.20;99.90
7648;DHT22;3866;48.020;11.720;2022-12-24T15:48:18;8.20;99.90
7648;DHT22;3866;48.020;11.720;2022-12-24T15:50:51;8.30;99.90
7648;DHT22;3866;48.020;11.720;2022-12-24T15:53:23;8.20;99.90
7648;DHT22;3866;48.020;11.720;2022-12-24T15:56:03;8.20;99.90
7648;DHT22;3866;48.020;11.720;2022-12-24T15:58:32;8.20;99.90
7648;DHT22;3866;48.020;11.720;2022-12-24T16:01:17;8.10;99.90
7648;DHT22;3866;48.020;11.720;2022-12-24T16:03:58;8.10;99.90
7648;DHT22;3866;48.020;11.720;2022-12-24T16:06:27;8.10;99.90
7648;DHT22;3866;48.020;11.720;2022-12-24T16:08:54;8.10;99.90
7648;DHT22;3866;48.020;11.720;2022-12-24T16:11:24;8.10;99.90
7648;DHT22;3866;48.020;11.720;2022-12-24T16:14:03;8.10;99.90
7648;DHT22;3866;48.020;11.720;2022-12-24T16:16:34;8.00;99.90
7648;DHT22;3866;48.020;11.720;2022-12-24T16:19:02;8.00;99.90
7648;DHT22;3866;48.020;11.720;2022-12-24T16:21:34;8.00;99.90
7648;DHT22;3866;48.020;11.720;2022-12-24T16:24:06;8.00;99.90
7648;DHT22;3866;48.020;11.720;2022-12-24T16:26:38;8.00;99.90
7648;DHT22;3866;48.020;11.720;2022-12-24T16:29:06;8.00;99.90
7648;DHT22;3866;48.020;11.720;2022-12-24T16:31:36;8.00;99.90
7648;DHT22;3866;48.020;11.720;2022-12-24T16:34:04;8.00;99.90